Terminal Aerodrome Forecast
Issued by NWS

Home | Current Version | Previous Version | Text Only | Print | Product List | Glossary On
Versions: 1 2 3 4 5 6 7 8 9 10 11 12 13 14 15 16 17 18 19 20 21 22 23 24 25 26 27 28 29 30 31 32 33
000
FTUS41 KBOX 291120
TAFBAF
TAF
KBAF 291120Z 2912/3012 36005KT P6SM BKN250
     FM291600 10006KT P6SM VCTS BKN110CB
     FM291800 15006KT P6SM VCTS BKN035CB
     FM292200 19006KT P6SM SCT200
     FM300300 19004KT P6SM VCSH BKN015
     FM300600 19004KT 3SM -SHRA BR OVC010=

USA.gov is the U.S. government's official web portal to all federal, state and local government web resources and services.